Monclova International Airport
MMMV : now visible

Airfield :











YOU CAN JOIN US ON...

 
LOGIN :

Register | Disclaimer

   EN    FR    IT 

 









Legend :    VFR   Marginal VFR   IFR   Intensive IFR   Very Intensive IFR
Visi :
Ceiling :
>= 8 km
>= 3000ft
5 to 8 km
1000 to 3000 ft
1500m to 5 km
500 to 1000 ft
800 to 1500m
200 to 500 ft
< 800m
< 200 ft
Symbols :   Thunderstorms  Fog  Heavy snow  Heavy precipitations  Wind > 20 kt






- Airport Elevation : 1864 ft
- IATA code : LOV


MMMV - Monclova International

CURRENT METAR :
  • 101540Z 04011KT 10SM BKN040 OVC060 16/12 A3022 RMK8/5///

EXPIRED METARs :
  • 101440Z 04008KT 10SM BKN040 OVC060 16/12 A3018 RMK8/5///
  • 101340Z 04008KT 10SM BKN040 OVC060 16/12 A3012 RMK8/5///

TAF TAF MMMV
Valid from the 09 at 18:00 until the 10 at 18:00 UTC


091623Z 0918/1018 00000KT P6SM SCT200
BECMG 0920/0921 03010KT
FM100200 03005KT P6SM SCT200
BECMG 1005/1006 00000KT
FM101200 36006KT 6SM HZ SCT030



MET'MAP, your aeronautical weather chart ! - Copyright ORBIFLY December 2007 - Disclaimer

ORBIFLY MET'MAP TEAM :

Programming & Development : Alexandra Zaïnal
Concept & original design : Baudouin d'Aumeries
Assistance for programming : Marc-Olivier Méhu
Technical & hardware support : Manuel Goepfert

Contact : metmap@orbifly.com




SOURCES & CREDITS :

   NOAA       Earth
Advisory